Time;durP1;ratioP1;P1;durP2;ratioP2;P2;SDS_P1;SDS_P2;PMS_P1;PMS_P2;Temp;Humidity;BMP_temperature;BMP_pressure;BME280_temperature;BME280_humidity;BME280_pressure;Samples;Min_cycle;Max_cycle;Signal;HPM_P1;HPM_P2
2021/07/04 00:00:56;;;;;;;;;8.00;8.00;;;;;;;;8918975;40;9741;-57
2021/07/04 00:06:58;;;;;;;;;9.33;8.00;;;;;;;;8920324;40;10801;-57
2021/07/04 00:13:01;;;;;;;;;7.33;7.33;;;;;;;;8921240;40;9740;-58
2021/07/04 00:19:04;;;;;;;;;8.00;8.00;;;;;;;;8920017;40;9698;-57
2021/07/04 00:25:08;;;;;;;;;9.67;7.33;;;;;;;;8922545;39;10376;-57
2021/07/04 00:31:10;;;;;;;;;7.00;6.00;;;;;;;;8923682;40;9892;-57
2021/07/04 00:37:12;;;;;;;;;7.00;6.00;;;;;;;;8924025;39;10101;-56
2021/07/04 00:43:14;;;;;;;;;5.00;5.00;;;;;;;;8923714;40;9732;-57
2021/07/04 00:49:16;;;;;;;;;6.00;5.00;;;;;;;;8913486;40;9947;-57
2021/07/04 00:55:20;;;;;;;;;8.00;7.67;;;;;;;;8899072;40;9736;-57
2021/07/04 01:01:27;;;;;;;;;7.67;7.67;;;;;;;;8913706;40;9696;-57
2021/07/04 01:07:30;;;;;;;;;6.33;6.33;;;;;;;;8914068;40;9779;-56
2021/07/04 01:13:32;;;;;;;;;6.67;4.67;;;;;;;;8924018;40;9881;-57
2021/07/04 01:19:46;;;;;;;;;5.33;5.33;;;;;;;;8914491;40;10434;-58
2021/07/04 01:25:52;;;;;;;;;5.67;5.67;;;;;;;;8922846;40;9698;-58
2021/07/04 01:31:58;;;;;;;;;3.67;3.67;;;;;;;;8913094;40;9738;-57
2021/07/04 01:38:02;;;;;;;;;8.00;8.00;;;;;;;;8915192;39;9798;-58
2021/07/04 01:44:04;;;;;;;;;8.33;8.33;;;;;;;;8922635;40;9694;-57
2021/07/04 01:50:11;;;;;;;;;9.00;8.33;;;;;;;;8912876;40;9654;-57
2021/07/04 01:56:13;;;;;;;;;10.67;9.33;;;;;;;;8914272;39;10889;-57
2021/07/04 02:02:21;;;;;;;;;9.00;8.00;;;;;;;;8912823;40;10302;-57
2021/07/04 02:08:25;;;;;;;;;7.00;7.00;;;;;;;;8912872;40;9890;-57
2021/07/04 02:14:47;;;;;;;;;6.00;6.00;;;;;;;;8920647;40;9686;-57
2021/07/04 02:21:19;;;;;;;;;9.00;8.67;;;;;;;;8922636;40;10413;-57
2021/07/04 02:27:47;;;;;;;;;12.00;9.00;;;;;;;;8921125;40;9783;-58
2021/07/04 02:34:01;;;;;;;;;7.00;7.00;;;;;;;;8880625;40;9786;-57
2021/07/04 02:40:11;;;;;;;;;7.00;7.00;;;;;;;;8895317;40;10005;-57
2021/07/04 02:46:16;;;;;;;;;10.67;10.00;;;;;;;;8912321;39;9780;-57
2021/07/04 02:52:19;;;;;;;;;7.33;7.33;;;;;;;;8912827;40;9773;-57
2021/07/04 02:58:21;;;;;;;;;8.67;8.67;;;;;;;;8920649;40;10160;-57
2021/07/04 03:04:25;;;;;;;;;11.67;10.00;;;;;;;;8912251;40;9741;-57
2021/07/04 03:10:28;;;;;;;;;10.00;10.00;;;;;;;;8920885;40;10214;-57
2021/07/04 03:16:31;;;;;;;;;11.67;11.00;;;;;;;;8921273;40;9692;-58
2021/07/04 03:22:33;;;;;;;;;11.00;10.33;;;;;;;;8912034;40;9874;-56
2021/07/04 03:28:36;;;;;;;;;10.33;10.33;;;;;;;;8921114;40;9915;-56
2021/07/04 03:34:49;;;;;;;;;10.00;10.00;;;;;;;;8911657;40;9815;-57
2021/07/04 03:40:52;;;;;;;;;10.67;10.33;;;;;;;;8911697;40;10290;-57
2021/07/04 03:47:03;;;;;;;;;12.67;11.33;;;;;;;;8922596;40;9759;-58
2021/07/04 03:53:07;;;;;;;;;11.00;11.00;;;;;;;;8921988;40;10621;-58
2021/07/04 03:59:11;;;;;;;;;9.00;9.00;;;;;;;;8910833;40;10660;-57
2021/07/04 04:05:14;;;;;;;;;13.33;11.33;;;;;;;;8911112;40;10081;-58
2021/07/04 04:11:22;;;;;;;;;10.25;9.50;;;;;;;;8911008;40;10741;-58
2021/07/04 04:17:34;;;;;;;;;9.75;9.50;;;;;;;;8911214;40;10806;-57
2021/07/04 04:23:37;;;;;;;;;14.25;10.00;;;;;;;;8911043;40;10514;-56
2021/07/04 04:29:43;;;;;;;;;10.75;10.00;;;;;;;;8920158;40;10719;-57
2021/07/04 04:35:48;;;;;;;;;8.75;8.75;;;;;;;;8910918;40;10521;-57
2021/07/04 04:41:51;;;;;;;;;9.00;9.00;;;;;;;;8919601;40;10507;-57
2021/07/04 04:48:07;;;;;;;;;11.25;10.00;;;;;;;;8920520;39;10436;-57
2021/07/04 04:54:10;;;;;;;;;9.00;7.75;;;;;;;;8919541;40;10230;-57
2021/07/04 05:00:13;;;;;;;;;11.25;11.00;;;;;;;;8919752;40;11112;-57
2021/07/04 05:06:16;;;;;;;;;13.00;13.00;;;;;;;;8920021;40;10375;-57
2021/07/04 05:12:19;;;;;;;;;15.50;15.25;;;;;;;;8921723;39;10795;-57
2021/07/04 05:18:20;;;;;;;;;9.75;8.00;;;;;;;;8924303;40;10386;-59
2021/07/04 05:24:22;;;;;;;;;13.00;10.75;;;;;;;;8922660;40;10381;-56
2021/07/04 05:30:24;;;;;;;;;12.00;12.00;;;;;;;;8913168;39;10553;-56
2021/07/04 05:36:26;;;;;;;;;9.75;9.75;;;;;;;;8922611;40;10276;-56
2021/07/04 05:42:29;;;;;;;;;12.00;9.75;;;;;;;;8922835;40;10368;-58
2021/07/04 05:48:31;;;;;;;;;10.75;10.75;;;;;;;;8923134;39;10232;-57
2021/07/04 05:54:33;;;;;;;;;10.00;7.75;;;;;;;;8922578;39;10393;-57
2021/07/04 06:00:36;;;;;;;;;8.25;7.50;;;;;;;;8922205;40;10543;-58
2021/07/04 06:06:38;;;;;;;;;11.00;10.00;;;;;;;;8923240;40;10323;-58
2021/07/04 06:12:40;;;;;;;;;7.00;7.00;;;;;;;;8921751;40;10147;-58
2021/07/04 06:18:42;;;;;;;;;11.25;9.50;;;;;;;;8922515;39;11026;-57
2021/07/04 06:24:44;;;;;;;;;10.75;9.00;;;;;;;;8921748;40;10671;-58
2021/07/04 06:30:46;;;;;;;;;9.50;9.50;;;;;;;;8922404;40;10414;-58
2021/07/04 06:36:48;;;;;;;;;6.25;5.25;;;;;;;;8923041;40;10113;-57
2021/07/04 06:42:50;;;;;;;;;6.50;6.50;;;;;;;;8922664;40;10316;-57
2021/07/04 06:48:52;;;;;;;;;9.00;6.25;;;;;;;;8922193;40;10170;-57
2021/07/04 06:54:54;;;;;;;;;4.00;4.00;;;;;;;;8920221;40;10140;-57
2021/07/04 07:00:56;;;;;;;;;7.00;6.00;;;;;;;;8921039;40;10239;-58
2021/07/04 07:06:58;;;;;;;;;5.00;5.00;;;;;;;;8911726;40;10327;-56
2021/07/04 07:13:00;;;;;;;;;6.00;6.00;;;;;;;;8922038;40;10139;-57
2021/07/04 07:19:07;;;;;;;;;9.00;7.00;;;;;;;;8921130;40;10208;-57
2021/07/04 07:25:10;;;;;;;;;6.50;5.25;;;;;;;;8921475;40;10235;-57
2021/07/04 07:31:12;;;;;;;;;6.25;6.25;;;;;;;;8920614;39;10172;-56
2021/07/04 07:37:14;;;;;;;;;6.00;6.00;;;;;;;;8922017;40;10188;-57
2021/07/04 07:43:16;;;;;;;;;5.50;5.50;;;;;;;;8920743;40;10185;-58
2021/07/04 07:49:18;;;;;;;;;6.25;6.25;;;;;;;;8921204;40;10215;-58
2021/07/04 07:55:22;;;;;;;;;6.25;5.00;;;;;;;;8919283;40;10250;-58
2021/07/04 08:01:26;;;;;;;;;5.75;5.75;;;;;;;;8921562;40;10256;-58
2021/07/04 08:07:33;;;;;;;;;6.50;5.75;;;;;;;;8911121;40;10136;-59
2021/07/04 08:13:35;;;;;;;;;8.00;5.00;;;;;;;;8921005;40;10142;-58
2021/07/04 08:19:37;;;;;;;;;6.25;5.50;;;;;;;;8921243;40;10150;-58
2021/07/04 08:25:39;;;;;;;;;10.75;7.00;;;;;;;;8911046;40;10162;-57
2021/07/04 08:31:41;;;;;;;;;6.00;5.25;;;;;;;;8920176;40;10195;-57
2021/07/04 08:37:43;;;;;;;;;4.00;4.00;;;;;;;;8919503;40;10171;-58
2021/07/04 08:43:46;;;;;;;;;6.25;6.25;;;;;;;;8920790;39;10087;-57
2021/07/04 08:49:49;;;;;;;;;8.00;8.00;;;;;;;;8925045;40;10806;-58
2021/07/04 08:55:51;;;;;;;;;5.25;5.25;;;;;;;;8923008;40;10208;-57
2021/07/04 09:01:54;;;;;;;;;4.25;4.25;;;;;;;;8924383;40;10330;-57
2021/07/04 09:07:56;;;;;;;;;5.25;5.25;;;;;;;;8924632;40;10226;-57
2021/07/04 09:14:05;;;;;;;;;6.25;5.75;;;;;;;;8905364;40;10176;-57
2021/07/04 09:20:11;;;;;;;;;5.00;5.00;;;;;;;;8924127;40;10228;-58
2021/07/04 09:26:39;;;;;;;;;6.50;6.00;;;;;;;;8922466;40;10170;-57
2021/07/04 09:32:47;;;;;;;;;6.75;6.00;;;;;;;;8923962;40;10208;-58
2021/07/04 09:38:49;;;;;;;;;3.00;3.00;;;;;;;;8923273;40;10339;-59
2021/07/04 09:44:56;;;;;;;;;7.25;7.25;;;;;;;;8922992;40;10985;-58
2021/07/04 09:51:09;;;;;;;;;5.00;5.00;;;;;;;;8924160;40;10212;-58
2021/07/04 09:57:11;;;;;;;;;5.00;2.50;;;;;;;;8923225;39;10243;-58
2021/07/04 10:03:21;;;;;;;;;7.25;6.25;;;;;;;;8922977;40;10179;-57
2021/07/04 10:09:29;;;;;;;;;3.50;3.50;;;;;;;;8923380;40;10737;-59
2021/07/04 10:15:31;;;;;;;;;4.50;4.50;;;;;;;;8922551;40;10152;-58
2021/07/04 10:21:34;;;;;;;;;7.25;7.25;;;;;;;;8923072;40;10258;-56
2021/07/04 10:27:38;;;;;;;;;8.00;7.00;;;;;;;;8922684;40;10422;-58
2021/07/04 10:33:42;;;;;;;;;8.50;7.75;;;;;;;;8924316;40;10439;-58
2021/07/04 10:40:08;;;;;;;;;5.50;5.50;;;;;;;;8921550;40;10316;-57
2021/07/04 10:46:17;;;;;;;;;5.75;5.75;;;;;;;;8922239;40;10215;-57
2021/07/04 10:52:20;;;;;;;;;6.00;6.00;;;;;;;;8922437;40;10402;-57
2021/07/04 10:58:22;;;;;;;;;6.00;6.00;;;;;;;;8922180;40;10168;-58
2021/07/04 11:04:52;;;;;;;;;10.00;9.50;;;;;;;;8922016;40;10333;-57
2021/07/04 11:10:55;;;;;;;;;7.75;7.00;;;;;;;;8917697;39;10677;-58
2021/07/04 11:17:02;;;;;;;;;7.25;7.25;;;;;;;;8922484;40;10390;-57
2021/07/04 11:23:23;;;;;;;;;4.00;4.00;;;;;;;;8920899;40;10165;-56
2021/07/04 11:29:25;;;;;;;;;6.00;6.00;;;;;;;;8922869;40;10170;-59
2021/07/04 11:35:40;;;;;;;;;2.75;2.75;;;;;;;;8921125;40;10133;-57
2021/07/04 11:41:50;;;;;;;;;6.00;6.00;;;;;;;;8921927;40;10267;-58
2021/07/04 11:47:56;;;;;;;;;6.75;6.75;;;;;;;;8920241;40;10147;-58
2021/07/04 11:54:04;;;;;;;;;5.75;5.75;;;;;;;;8921681;40;10163;-58
2021/07/04 12:00:10;;;;;;;;;7.00;7.00;;;;;;;;8920895;40;10281;-58
2021/07/04 12:06:14;;;;;;;;;7.25;7.25;;;;;;;;8920525;40;10768;-56
2021/07/04 12:12:19;;;;;;;;;11.00;9.25;;;;;;;;8921786;40;10196;-56
2021/07/04 12:18:23;;;;;;;;;7.50;7.50;;;;;;;;8921040;39;10369;-56
2021/07/04 12:24:34;;;;;;;;;7.00;6.00;;;;;;;;8925370;40;10410;-58
2021/07/04 12:30:39;;;;;;;;;10.25;7.75;;;;;;;;8924961;40;10762;-57
2021/07/04 12:36:41;;;;;;;;;6.25;6.25;;;;;;;;8924702;40;10151;-58
2021/07/04 12:42:43;;;;;;;;;7.75;7.75;;;;;;;;8924354;40;10166;-57
2021/07/04 12:48:48;;;;;;;;;7.00;5.50;;;;;;;;8923510;40;10361;-57
2021/07/04 12:54:50;;;;;;;;;7.50;7.50;;;;;;;;8924008;40;10121;-58
2021/07/04 13:00:55;;;;;;;;;7.00;5.00;;;;;;;;8913943;40;10301;-58
2021/07/04 13:07:06;;;;;;;;;7.75;6.00;;;;;;;;8923456;40;10185;-58
2021/07/04 13:13:09;;;;;;;;;9.50;8.25;;;;;;;;8922363;40;10214;-59
2021/07/04 13:19:19;;;;;;;;;6.00;6.00;;;;;;;;8923063;40;10375;-61
2021/07/04 13:25:22;;;;;;;;;6.75;6.75;;;;;;;;8923511;40;10243;-57
2021/07/04 13:31:24;;;;;;;;;7.00;6.00;;;;;;;;8922499;39;10165;-57
2021/07/04 13:37:28;;;;;;;;;8.00;7.00;;;;;;;;8923032;40;10282;-56
2021/07/04 13:43:30;;;;;;;;;12.00;9.00;;;;;;;;8923078;40;10132;-57
2021/07/04 13:49:32;;;;;;;;;8.75;8.75;;;;;;;;8922639;40;10203;-58
2021/07/04 13:55:34;;;;;;;;;8.00;8.00;;;;;;;;8922976;40;10425;-58
2021/07/04 14:01:36;;;;;;;;;7.50;6.75;;;;;;;;8923519;40;10206;-57
2021/07/04 14:07:38;;;;;;;;;8.00;8.00;;;;;;;;8923363;40;10125;-56
2021/07/04 14:13:41;;;;;;;;;2.00;2.00;;;;;;;;8922132;40;10251;-57
2021/07/04 14:19:49;;;;;;;;;6.50;5.25;;;;;;;;8921874;40;10205;-57
2021/07/04 14:25:50;;;;;;;;;6.50;6.50;;;;;;;;8922502;40;10149;-57
2021/07/04 14:31:53;;;;;;;;;6.75;6.75;;;;;;;;8921861;40;10813;-59
2021/07/04 14:37:55;;;;;;;;;6.75;6.00;;;;;;;;8922447;40;10171;-57
2021/07/04 14:43:58;;;;;;;;;10.00;7.00;;;;;;;;8922925;39;10620;-60
2021/07/04 14:50:00;;;;;;;;;9.00;9.00;;;;;;;;8921895;40;10276;-57
2021/07/04 14:56:08;;;;;;;;;7.75;7.75;;;;;;;;8921884;40;10144;-59
2021/07/04 15:02:16;;;;;;;;;9.50;9.50;;;;;;;;8921286;40;10252;-57
2021/07/04 15:08:19;;;;;;;;;9.00;9.00;;;;;;;;8922777;40;10266;-58
2021/07/04 15:14:21;;;;;;;;;9.00;9.00;;;;;;;;8921363;40;10309;-58
2021/07/04 15:20:26;;;;;;;;;10.25;10.25;;;;;;;;8920839;40;10295;-59
2021/07/04 15:26:28;;;;;;;;;10.25;10.00;;;;;;;;8911796;40;10237;-59
2021/07/04 15:32:30;;;;;;;;;9.25;9.25;;;;;;;;8912214;40;10127;-58
2021/07/04 15:38:31;;;;;;;;;11.50;8.25;;;;;;;;8908228;39;11036;-57
2021/07/04 15:44:33;;;;;;;;;9.75;8.50;;;;;;;;8919921;40;10191;-57
2021/07/04 15:50:36;;;;;;;;;7.50;7.25;;;;;;;;8921511;40;10746;-57
2021/07/04 15:56:38;;;;;;;;;10.75;9.75;;;;;;;;8920316;39;10233;-59
2021/07/04 16:02:40;;;;;;;;;9.00;9.00;;;;;;;;8920402;40;10289;-58
2021/07/04 16:08:42;;;;;;;;;6.75;6.75;;;;;;;;8921164;40;10382;-58
2021/07/04 16:14:44;;;;;;;;;7.00;7.00;;;;;;;;8920514;40;10281;-59
2021/07/04 16:20:46;;;;;;;;;7.25;7.25;;;;;;;;8920190;40;10140;-58
2021/07/04 16:26:48;;;;;;;;;9.50;9.25;;;;;;;;8920780;40;10231;-59
2021/07/04 16:32:51;;;;;;;;;7.00;6.50;;;;;;;;8921155;40;10677;-58
2021/07/04 16:38:53;;;;;;;;;9.00;9.00;;;;;;;;8920273;40;10317;-57
2021/07/04 16:44:55;;;;;;;;;10.50;10.25;;;;;;;;8920036;40;10465;-57
2021/07/04 16:50:57;;;;;;;;;10.25;10.25;;;;;;;;8919943;40;10100;-57
2021/07/04 16:56:59;;;;;;;;;10.00;8.75;;;;;;;;8920876;40;10370;-58
2021/07/04 17:03:03;;;;;;;;;9.75;8.50;;;;;;;;8909554;39;10174;-57
2021/07/04 17:09:08;;;;;;;;;13.75;12.00;;;;;;;;8899266;40;10435;-59
2021/07/04 17:15:11;;;;;;;;;13.00;11.75;;;;;;;;8898993;40;10266;-57
2021/07/04 17:21:13;;;;;;;;;8.75;8.75;;;;;;;;8896772;40;10298;-57
2021/07/04 17:27:15;;;;;;;;;9.50;6.00;;;;;;;;8899360;40;10293;-59
2021/07/04 17:33:17;;;;;;;;;7.25;6.50;;;;;;;;8898806;40;10239;-58
2021/07/04 17:39:19;;;;;;;;;3.25;3.25;;;;;;;;8897557;40;10630;-59
2021/07/04 17:45:22;;;;;;;;;5.00;5.00;;;;;;;;8898749;40;10295;-59
2021/07/04 17:51:24;;;;;;;;;5.50;5.50;;;;;;;;8898292;40;10381;-59
2021/07/04 17:57:25;;;;;;;;;6.00;6.00;;;;;;;;8897702;40;10527;-58
2021/07/04 18:03:27;;;;;;;;;10.50;10.50;;;;;;;;8897856;40;10300;-57
2021/07/04 18:09:29;;;;;;;;;13.25;12.50;;;;;;;;8898801;40;10443;-57
2021/07/04 18:15:33;;;;;;;;;6.25;5.25;;;;;;;;8898109;40;10402;-57
2021/07/04 18:21:49;;;;;;;;;14.00;8.25;;;;;;;;8922151;40;10211;-58
2021/07/04 18:27:51;;;;;;;;;9.75;9.75;;;;;;;;8922260;40;10336;-60
2021/07/04 18:33:55;;;;;;;;;8.50;8.50;;;;;;;;8922062;40;10468;-57
2021/07/04 18:39:57;;;;;;;;;4.50;4.50;;;;;;;;8922526;40;10149;-58
2021/07/04 18:46:00;;;;;;;;;5.75;5.75;;;;;;;;8922411;40;10223;-58
2021/07/04 18:52:02;;;;;;;;;7.50;6.25;;;;;;;;8922901;40;10355;-58
2021/07/04 18:58:04;;;;;;;;;6.00;6.00;;;;;;;;8922031;40;10886;-57
2021/07/04 19:04:06;;;;;;;;;5.00;5.00;;;;;;;;8922456;40;10190;-58
2021/07/04 19:10:09;;;;;;;;;7.75;7.00;;;;;;;;8922160;40;10119;-57
2021/07/04 19:16:11;;;;;;;;;9.00;8.50;;;;;;;;8921714;40;10233;-58
2021/07/04 19:22:18;;;;;;;;;11.75;9.75;;;;;;;;8922453;40;10882;-58
2021/07/04 19:28:22;;;;;;;;;15.00;14.75;;;;;;;;8921599;40;10666;-58
2021/07/04 19:34:24;;;;;;;;;9.25;9.00;;;;;;;;8920996;40;10233;-58
2021/07/04 19:40:43;;;;;;;;;5.25;5.25;;;;;;;;8921368;40;10138;-59
2021/07/04 19:46:45;;;;;;;;;6.00;6.00;;;;;;;;8921749;40;10286;-57
2021/07/04 19:52:47;;;;;;;;;12.25;9.00;;;;;;;;8922272;40;10493;-58
2021/07/04 19:58:50;;;;;;;;;9.50;6.50;;;;;;;;8921330;40;10315;-58
2021/07/04 20:04:52;;;;;;;;;6.50;6.50;;;;;;;;8920536;40;10128;-57
2021/07/04 20:10:54;;;;;;;;;7.00;6.25;;;;;;;;8921004;40;10202;-58
2021/07/04 20:16:56;;;;;;;;;7.00;5.75;;;;;;;;8919958;40;10218;-58
2021/07/04 20:22:58;;;;;;;;;6.00;6.00;;;;;;;;8921491;40;10205;-56
2021/07/04 20:29:00;;;;;;;;;5.00;5.00;;;;;;;;8920682;40;10262;-56
2021/07/04 20:35:02;;;;;;;;;6.25;6.25;;;;;;;;8919692;40;10346;-57
2021/07/04 20:41:04;;;;;;;;;6.25;6.00;;;;;;;;8922176;39;10262;-57
2021/07/04 20:47:07;;;;;;;;;7.50;4.00;;;;;;;;8923677;40;10129;-57
2021/07/04 20:53:09;;;;;;;;;5.50;5.50;;;;;;;;8924465;40;10409;-58
2021/07/04 20:59:10;;;;;;;;;6.25;5.50;;;;;;;;8924064;40;10526;-57
2021/07/04 21:05:12;;;;;;;;;5.50;4.50;;;;;;;;8914017;40;10220;-57
2021/07/04 21:11:14;;;;;;;;;4.25;4.00;;;;;;;;8924351;40;10332;-56
2021/07/04 21:17:16;;;;;;;;;10.00;6.75;;;;;;;;8923083;40;10508;-59
2021/07/04 21:23:18;;;;;;;;;3.00;3.00;;;;;;;;8924191;40;10953;-57
2021/07/04 21:29:24;;;;;;;;;5.25;5.25;;;;;;;;8922974;40;10521;-58
2021/07/04 21:35:26;;;;;;;;;4.75;4.75;;;;;;;;8922766;40;10283;-58
2021/07/04 21:41:30;;;;;;;;;6.75;5.25;;;;;;;;8913478;40;10317;-57
2021/07/04 21:47:34;;;;;;;;;8.75;7.75;;;;;;;;8923044;40;10371;-56
2021/07/04 21:53:36;;;;;;;;;6.75;6.75;;;;;;;;8923544;39;10462;-58
2021/07/04 21:59:38;;;;;;;;;8.25;8.25;;;;;;;;8923730;40;11208;-58
2021/07/04 22:05:40;;;;;;;;;9.00;8.25;;;;;;;;8923100;39;10581;-57
2021/07/04 22:11:42;;;;;;;;;8.00;6.50;;;;;;;;8922774;40;10514;-56
2021/07/04 22:17:45;;;;;;;;;9.50;8.25;;;;;;;;8921925;40;10627;-57
2021/07/04 22:23:47;;;;;;;;;8.75;8.75;;;;;;;;8922313;40;10297;-58
2021/07/04 22:29:49;;;;;;;;;8.00;8.00;;;;;;;;8920979;40;10347;-58
2021/07/04 22:35:51;;;;;;;;;6.75;6.75;;;;;;;;8922083;40;10445;-57
2021/07/04 22:41:53;;;;;;;;;6.75;6.75;;;;;;;;8913324;40;10579;-57
2021/07/04 22:47:59;;;;;;;;;8.75;8.75;;;;;;;;8922462;40;10545;-56
2021/07/04 22:54:01;;;;;;;;;8.25;6.50;;;;;;;;8922001;40;10755;-57
2021/07/04 23:00:06;;;;;;;;;9.33;9.33;;;;;;;;8922344;40;10034;-57
2021/07/04 23:06:07;;;;;;;;;11.00;8.75;;;;;;;;8921007;39;10523;-57
2021/07/04 23:12:10;;;;;;;;;9.00;7.33;;;;;;;;8921992;40;10287;-57
2021/07/04 23:18:12;;;;;;;;;9.00;8.25;;;;;;;;8921213;40;10596;-56
2021/07/04 23:24:13;;;;;;;;;8.67;8.33;;;;;;;;8921404;40;10888;-58
2021/07/04 23:30:18;;;;;;;;;11.25;9.00;;;;;;;;8921354;40;11947;-57
2021/07/04 23:36:20;;;;;;;;;7.00;7.00;;;;;;;;8921084;40;10385;-57
2021/07/04 23:42:21;;;;;;;;;9.75;9.75;;;;;;;;8921140;40;10535;-58
2021/07/04 23:48:24;;;;;;;;;7.25;6.75;;;;;;;;8920572;40;10494;-56
2021/07/04 23:54:26;;;;;;;;;8.50;7.75;;;;;;;;8920420;40;10783;-56
